Terminal Aerodrome Forecast
Issued by NWS Spokane, WA

Home | Current Version | Previous Version | Text Only | Print | Product List | Glossary On
Versions: 1 2 3 4 5 6 7 8 9 10 11 12 13 14 15 16 17 18 19 20 21 22 23 24 25 26
000
FTUS46 KOTX 182328
TAFLWS
TAF
KLWS 182328Z 1900/1924 19004KT P6SM FEW060 BKN090
     FM190600 12007KT P6SM BKN110
     FM191200 13004KT P6SM -RA OVC060
     FM191800 12004KT 6SM -RA BR SCT020 OVC040
     FM192200 27005KT P6SM -SHRA SCT040 OVC050=

USA.gov is the U.S. government's official web portal to all federal, state and local government web resources and services.